createdAt,value
2022-08-05T00:01:25.216Z,22.90
2022-08-05T00:04:29.827Z,22.63
2022-08-05T00:08:00.914Z,22.19
2022-08-05T00:10:53.782Z,21.59
2022-08-05T00:13:55.316Z,21.01
2022-08-05T00:16:57.501Z,21.74
2022-08-05T00:20:02.377Z,22.24
2022-08-05T00:23:12.559Z,22.37
2022-08-05T00:26:16.440Z,22.21
2022-08-05T00:32:19.798Z,21.96
2022-08-05T00:35:21.314Z,22.34
2022-08-05T00:38:35.110Z,22.25
2022-08-05T00:41:46.806Z,21.76
2022-08-05T00:44:54.969Z,20.84
2022-08-05T00:48:05.142Z,20.85
2022-08-05T00:51:49.925Z,21.29
2022-08-05T00:54:30.175Z,21.60
2022-08-05T00:57:38.428Z,21.74
2022-08-05T01:00:53.457Z,21.52
2022-08-05T01:03:55.476Z,21.04
2022-08-05T01:06:57.214Z,21.08
2022-08-05T01:10:01.637Z,21.31
2022-08-05T01:13:13.220Z,21.08
2022-08-05T01:16:32.762Z,20.56
2022-08-05T01:20:02.690Z,20.57
2022-08-05T01:23:53.058Z,20.70
2022-08-05T01:27:19.174Z,20.88
2022-08-05T01:30:34.470Z,21.03
2022-08-05T01:33:49.298Z,21.38
2022-08-05T01:37:04.003Z,21.58
2022-08-05T01:40:08.414Z,22.04
2022-08-05T01:43:22.449Z,22.24
2022-08-05T01:46:42.646Z,22.40
2022-08-05T01:50:02.094Z,22.93
2022-08-05T01:53:08.365Z,22.87
2022-08-05T01:58:13.082Z,22.78
2022-08-05T01:59:40.387Z,22.91
2022-08-05T02:02:54.427Z,23.11
2022-08-05T02:05:59.925Z,23.10
2022-08-05T02:09:03.504Z,23.13
2022-08-05T02:12:12.422Z,23.09
2022-08-05T02:15:22.122Z,23.09
2022-08-05T02:18:34.850Z,23.02
2022-08-05T02:21:46.818Z,23.09
2022-08-05T02:24:55.743Z,23.05
2022-08-05T02:28:00.494Z,22.99
2022-08-05T02:31:07.433Z,22.86
2022-08-05T02:34:13.649Z,22.73
2022-08-05T02:37:16.249Z,22.69
2022-08-05T02:40:22.898Z,22.59
2022-08-05T02:43:27.430Z,22.48
2022-08-05T02:46:30.905Z,22.52
2022-08-05T02:49:41.841Z,22.57
2022-08-05T02:52:46.797Z,22.51
2022-08-05T02:55:54.454Z,22.00
2022-08-05T02:58:59.886Z,21.88
2022-08-05T03:02:02.758Z,22.21
2022-08-05T03:05:07.502Z,22.07
2022-08-05T03:08:11.134Z,21.70
2022-08-05T03:11:54.998Z,21.90
2022-08-05T03:14:48.172Z,21.79
2022-08-05T03:17:50.423Z,21.34
2022-08-05T03:20:58.248Z,21.51
2022-08-05T03:24:00.687Z,21.01
2022-08-05T03:27:06.771Z,20.79
2022-08-05T03:30:09.279Z,21.23
2022-08-05T03:33:11.295Z,21.70
2022-08-05T03:36:14.211Z,21.70
2022-08-05T03:39:20.173Z,21.50
2022-08-05T03:42:32.825Z,21.37
2022-08-05T03:45:58.170Z,21.31
2022-08-05T03:49:01.789Z,20.96
2022-08-05T03:52:50.200Z,20.83
2022-08-05T03:56:09.995Z,20.95
2022-08-05T03:59:01.920Z,20.81
2022-08-05T04:02:04.569Z,21.23
2022-08-05T04:05:10.189Z,21.26
2022-08-05T04:08:14.696Z,21.11
2022-08-05T04:11:47.265Z,21.21
2022-08-05T04:14:52.487Z,21.33
2022-08-05T04:17:56.610Z,21.21
2022-08-05T04:20:59.157Z,21.41
2022-08-05T04:24:06.187Z,21.54
2022-08-05T04:27:08.879Z,21.37
2022-08-05T04:30:10.726Z,21.00
2022-08-05T04:33:13.343Z,20.82
2022-08-05T04:36:44.707Z,20.92
2022-08-05T04:39:37.244Z,21.38
2022-08-05T04:42:38.808Z,21.18
2022-08-05T04:45:48.987Z,20.90
2022-08-05T04:48:58.653Z,20.58
2022-08-05T04:52:00.793Z,20.51
2022-08-05T04:55:13.963Z,20.41
2022-08-05T04:58:20.171Z,20.33
2022-08-05T05:02:05.445Z,20.49
2022-08-05T05:04:48.074Z,20.75
2022-08-05T05:07:56.379Z,20.82
2022-08-05T05:11:02.507Z,21.26
2022-08-05T05:14:04.311Z,21.62
2022-08-05T05:17:10.172Z,21.75
2022-08-05T05:20:13.271Z,21.90
2022-08-05T05:23:19.998Z,22.13
2022-08-05T05:26:28.611Z,22.28
2022-08-05T05:30:04.624Z,22.45
2022-08-05T05:32:56.260Z,22.56
2022-08-05T05:35:58.028Z,22.67
2022-08-05T05:39:03.542Z,22.75
2022-08-05T05:42:06.023Z,22.83
2022-08-05T05:45:09.185Z,22.94
2022-08-05T05:48:10.740Z,22.96
2022-08-05T05:51:22.904Z,22.99
2022-08-05T05:54:49.763Z,23.10
2022-08-05T05:57:52.690Z,23.21
2022-08-05T06:00:54.957Z,23.33
2022-08-05T06:04:02.071Z,23.46
2022-08-05T06:07:05.521Z,23.55
2022-08-05T06:10:10.460Z,23.65
2022-08-05T06:13:12.750Z,23.78
2022-08-05T06:16:30.167Z,23.92
2022-08-05T06:19:34.882Z,23.96
2022-08-05T06:22:37.130Z,23.98
2022-08-05T06:26:12.293Z,23.96
2022-08-05T06:29:25.551Z,24.07
2022-08-05T06:32:28.890Z,24.08
2022-08-05T06:36:06.906Z,24.06
2022-08-05T06:38:54.605Z,23.93
2022-08-05T06:42:04.007Z,23.97
2022-08-05T06:45:08.899Z,24.11
2022-08-05T06:48:52.475Z,24.19
2022-08-05T06:51:34.261Z,24.26
2022-08-05T06:54:37.543Z,24.43
2022-08-05T06:58:03.982Z,24.58
2022-08-05T07:01:02.334Z,24.50
2022-08-05T07:04:04.043Z,24.70
2022-08-05T07:07:07.819Z,24.80
2022-08-05T07:10:10.548Z,24.78
2022-08-05T07:13:58.488Z,24.97
2022-08-05T07:17:58.200Z,25.07
2022-08-05T07:20:39.091Z,25.24
2022-08-05T07:23:40.731Z,25.19
2022-08-05T07:26:52.461Z,25.17
2022-08-05T07:30:27.678Z,25.26
2022-08-05T07:33:17.056Z,25.36
2022-08-05T07:36:20.689Z,25.48
2022-08-05T07:40:03.706Z,25.51
2022-08-05T07:42:45.052Z,25.62
2022-08-05T07:45:57.317Z,25.52
2022-08-05T07:49:05.436Z,25.55
2022-08-05T07:52:07.976Z,25.74
2022-08-05T07:55:15.796Z,25.83
2022-08-05T07:58:54.976Z,25.89
2022-08-05T08:01:57.650Z,25.94
2022-08-05T08:05:01.290Z,26.06
2022-08-05T08:08:02.915Z,26.09
2022-08-05T08:11:04.591Z,26.02
2022-08-05T08:14:10.657Z,26.12
2022-08-05T08:17:21.465Z,26.06
2022-08-05T08:20:45.293Z,26.25
2022-08-05T08:24:02.309Z,26.31
2022-08-05T08:27:06.907Z,26.22
2022-08-05T08:30:29.840Z,26.37
2022-08-05T08:33:37.610Z,26.49
2022-08-05T08:36:48.889Z,26.43
2022-08-05T08:39:54.153Z,26.64
2022-08-05T08:42:56.815Z,26.79
2022-08-05T08:46:01.476Z,26.76
2022-08-05T08:50:22.509Z,26.70
2022-08-05T08:52:32.192Z,26.72
2022-08-05T08:56:03.175Z,26.80
2022-08-05T08:58:59.246Z,26.84
2022-08-05T09:02:08.432Z,26.83
2022-08-05T09:05:17.605Z,26.99
2022-08-05T09:08:27.496Z,26.91
2022-08-05T09:11:52.204Z,27.20
2022-08-05T09:14:59.474Z,27.13
2022-08-05T09:18:09.242Z,27.04
2022-08-05T09:21:11.804Z,26.97
2022-08-05T09:24:22.722Z,26.71
2022-08-05T09:28:04.504Z,26.77
2022-08-05T09:31:43.824Z,26.83
2022-08-05T09:34:26.254Z,26.91
2022-08-05T09:38:12.655Z,27.08
2022-08-05T09:40:52.240Z,27.18
2022-08-05T09:43:55.118Z,27.42
2022-08-05T09:47:10.366Z,27.55
2022-08-05T09:50:17.873Z,27.36
2022-08-05T09:53:22.869Z,27.27
2022-08-05T09:56:33.381Z,27.45
2022-08-05T09:59:37.320Z,27.35
2022-08-05T10:02:48.512Z,27.40
2022-08-05T10:06:15.800Z,27.73
2022-08-05T10:09:27.255Z,27.68
2022-08-05T10:12:33.810Z,27.99
2022-08-05T10:15:39.430Z,28.37
2022-08-05T10:18:43.035Z,28.20
2022-08-05T10:21:50.350Z,28.05
2022-08-05T10:24:52.406Z,27.65
2022-08-05T10:28:12.960Z,27.76
2022-08-05T10:32:50.604Z,28.51
2022-08-05T10:34:42.428Z,28.88
2022-08-05T10:37:45.264Z,28.94
2022-08-05T10:40:57.786Z,28.86
2022-08-05T10:44:05.127Z,28.92
2022-08-05T10:47:26.897Z,29.13
2022-08-05T10:50:36.909Z,28.98
2022-08-05T10:53:45.472Z,28.94
2022-08-05T10:56:57.626Z,29.49
2022-08-05T11:00:17.893Z,29.16
2022-08-05T11:03:24.677Z,28.79
2022-08-05T11:06:30.757Z,28.71
2022-08-05T11:10:03.996Z,29.23
2022-08-05T11:13:57.736Z,29.74
2022-08-05T11:18:00.250Z,29.77
2022-08-05T11:20:53.765Z,29.95
2022-08-05T11:24:05.571Z,30.07
2022-08-05T11:27:51.491Z,30.03
2022-08-05T11:30:58.410Z,29.55
2022-08-05T11:34:08.163Z,29.15
2022-08-05T11:38:37.399Z,29.98
2022-08-05T11:41:01.724Z,30.51
2022-08-05T11:44:40.494Z,29.87
2022-08-05T11:47:49.396Z,30.47
2022-08-05T11:50:53.470Z,30.76
2022-08-05T11:53:56.216Z,30.60
2022-08-05T11:56:58.020Z,30.84
2022-08-05T12:00:03.515Z,31.03
2022-08-05T12:03:23.765Z,31.32
2022-08-05T12:06:35.609Z,31.41
2022-08-05T12:09:53.209Z,31.09
2022-08-05T12:13:03.071Z,31.01
2022-08-05T12:16:25.456Z,31.26
2022-08-05T12:20:25.368Z,30.50
2022-08-05T12:22:51.869Z,30.96
2022-08-05T12:25:56.496Z,31.45
2022-08-05T12:28:58.570Z,31.40
2022-08-05T12:32:02.175Z,30.88
2022-08-05T12:35:05.287Z,31.23
2022-08-05T12:38:10.262Z,31.73
2022-08-05T12:41:14.605Z,31.93
2022-08-05T12:44:32.585Z,31.96
2022-08-05T12:47:36.464Z,31.74
2022-08-05T12:50:38.223Z,31.65
2022-08-05T12:53:44.633Z,31.52
2022-08-05T12:56:58.516Z,31.90
2022-08-05T13:01:58.500Z,32.04
2022-08-05T13:03:24.258Z,32.12
2022-08-05T13:06:33.841Z,31.96
2022-08-05T13:09:35.432Z,31.83
2022-08-05T13:12:42.712Z,31.72
2022-08-05T13:15:54.307Z,32.02
2022-08-05T13:18:59.283Z,32.05
2022-08-05T13:22:00.775Z,31.76
2022-08-05T13:25:18.751Z,31.48
2022-08-05T13:28:21.806Z,31.24
2022-08-05T13:31:34.053Z,31.81
2022-08-05T13:34:45.229Z,32.04
2022-08-05T13:37:48.141Z,32.05
2022-08-05T13:40:57.477Z,31.64
2022-08-05T13:43:59.241Z,31.78
2022-08-05T13:47:04.607Z,32.06
2022-08-05T13:50:14.788Z,32.10
2022-08-05T13:53:19.260Z,31.55
2022-08-05T13:56:21.149Z,31.93
2022-08-05T13:59:24.050Z,32.11
2022-08-05T14:02:29.762Z,31.95
2022-08-05T14:06:24.468Z,31.87
2022-08-05T14:08:54.204Z,31.60
2022-08-05T14:12:04.200Z,31.47
2022-08-05T14:16:06.037Z,31.20
2022-08-05T14:18:39.543Z,30.96
2022-08-05T14:22:08.775Z,30.88
2022-08-05T14:25:06.486Z,30.61
2022-08-05T14:28:26.834Z,30.55
2022-08-05T14:32:02.505Z,30.62
2022-08-05T14:34:50.618Z,30.37
2022-08-05T14:37:55.458Z,30.15
2022-08-05T14:40:57.388Z,29.95
2022-08-05T14:44:09.642Z,29.78
2022-08-05T14:47:58.511Z,29.77
2022-08-05T14:50:42.611Z,29.65
2022-08-05T14:53:44.930Z,29.51
2022-08-05T14:56:47.220Z,29.47
2022-08-05T14:59:48.838Z,29.52
2022-08-05T15:02:50.757Z,29.52
2022-08-05T15:06:12.769Z,29.59
2022-08-05T15:09:14.115Z,29.71
2022-08-05T15:12:17.314Z,29.87
2022-08-05T15:15:54.993Z,30.20
2022-08-05T15:18:40.506Z,30.23
2022-08-05T15:21:42.868Z,30.21
2022-08-05T15:24:44.709Z,30.14
2022-08-05T15:27:52.274Z,29.38
2022-08-05T15:30:54.121Z,27.77
2022-08-05T15:34:18.316Z,27.30
2022-08-05T15:37:27.377Z,26.93
2022-08-05T15:41:03.400Z,27.51
2022-08-05T15:44:00.637Z,27.58
2022-08-05T15:47:03.542Z,27.81
2022-08-05T15:50:07.208Z,28.18
2022-08-05T15:53:09.245Z,28.22
2022-08-05T15:56:14.008Z,28.60
2022-08-05T15:59:22.255Z,28.47
2022-08-05T16:02:25.182Z,28.79
2022-08-05T16:05:28.149Z,28.74
2022-08-05T16:08:30.347Z,28.70
2022-08-05T16:11:43.021Z,28.50
2022-08-05T16:14:45.311Z,28.84
2022-08-05T16:17:57.812Z,28.71
2022-08-05T16:21:04.563Z,28.13
2022-08-05T16:24:07.701Z,28.12
2022-08-05T16:27:32.120Z,28.09
2022-08-05T16:30:50.375Z,28.07
2022-08-05T16:33:52.496Z,28.09
2022-08-05T16:36:55.213Z,28.04
2022-08-05T16:40:04.674Z,27.47
2022-08-05T16:43:06.940Z,27.65
2022-08-05T16:46:23.628Z,27.58
2022-08-05T16:49:26.439Z,27.34
2022-08-05T16:52:33.443Z,27.11
2022-08-05T16:55:46.906Z,27.01
2022-08-05T16:58:49.474Z,26.46
2022-08-05T17:01:52.866Z,26.70
2022-08-05T17:04:57.163Z,26.55
2022-08-05T17:07:58.711Z,26.08
2022-08-05T17:11:00.295Z,26.15
2022-08-05T17:14:05.744Z,26.15
2022-08-05T17:17:09.445Z,26.25
2022-08-05T17:20:16.488Z,26.18
2022-08-05T17:24:03.783Z,25.66
2022-08-05T17:26:40.948Z,25.85
2022-08-05T17:29:42.606Z,25.63
2022-08-05T17:32:44.221Z,25.59
2022-08-05T17:36:07.443Z,25.53
2022-08-05T17:39:24.335Z,25.60
2022-08-05T17:42:32.872Z,25.59
2022-08-05T17:45:38.575Z,25.28
2022-08-05T17:48:40.356Z,25.40
2022-08-05T17:51:46.459Z,25.20
2022-08-05T17:54:52.091Z,25.26
2022-08-05T17:57:54.091Z,25.14
2022-08-05T18:00:55.591Z,24.85
2022-08-05T18:04:04.673Z,24.85
2022-08-05T18:07:07.461Z,24.72
2022-08-05T18:10:21.136Z,24.71
2022-08-05T18:13:23.018Z,24.81
2022-08-05T18:16:27.339Z,24.79
2022-08-05T18:19:28.928Z,24.68
2022-08-05T18:22:36.408Z,24.59
2022-08-05T18:25:57.645Z,24.43
2022-08-05T18:29:01.032Z,24.33
2022-08-05T18:32:02.971Z,24.36
2022-08-05T18:35:05.307Z,24.18
2022-08-05T18:38:07.925Z,23.79
2022-08-05T18:41:55.076Z,23.81
2022-08-05T18:44:34.881Z,23.59
2022-08-05T18:47:37.953Z,23.38
2022-08-05T18:51:01.730Z,23.23
2022-08-05T18:54:19.934Z,23.17
2022-08-05T18:57:23.915Z,23.18
2022-08-05T19:00:29.235Z,23.44
2022-08-05T19:03:52.688Z,22.99
2022-08-05T19:06:53.557Z,23.18
2022-08-05T19:09:55.930Z,23.25
2022-08-05T19:12:57.797Z,23.04
2022-08-05T19:16:03.448Z,22.98
2022-08-05T19:19:05.415Z,22.91
2022-08-05T19:22:06.947Z,22.66
2022-08-05T19:25:10.603Z,22.50
2022-08-05T19:28:23.202Z,22.01
2022-08-05T19:31:26.165Z,21.92
2022-08-05T19:34:35.272Z,21.65
2022-08-05T19:38:04.755Z,21.61
2022-08-05T19:40:58.597Z,21.57
2022-08-05T19:44:13.455Z,21.83
2022-08-05T19:47:16.569Z,21.70
2022-08-05T19:50:19.910Z,21.84
2022-08-05T19:54:04.383Z,21.67
2022-08-05T19:56:43.245Z,21.47
2022-08-05T20:00:01.193Z,21.44
2022-08-05T20:03:14.011Z,21.58
2022-08-05T20:06:28.848Z,21.48
2022-08-05T20:09:30.839Z,21.36
2022-08-05T20:12:52.333Z,21.41
2022-08-05T20:15:56.823Z,21.42
2022-08-05T20:18:59.115Z,21.24
2022-08-05T20:22:03.967Z,21.02
2022-08-05T20:25:07.095Z,20.97
2022-08-05T20:28:13.749Z,20.86
2022-08-05T20:31:21.638Z,20.76
2022-08-05T20:34:24.645Z,20.84
2022-08-05T20:38:06.053Z,20.82
2022-08-05T20:40:47.858Z,20.65
2022-08-05T20:43:59.079Z,20.57
2022-08-05T20:47:07.400Z,20.41
2022-08-05T20:50:11.436Z,20.48
2022-08-05T20:53:16.149Z,20.36
2022-08-05T20:56:42.133Z,20.48
2022-08-05T20:59:46.253Z,20.18
2022-08-05T21:03:07.964Z,20.25
2022-08-05T21:06:28.449Z,20.23
2022-08-05T21:09:31.101Z,20.62
2022-08-05T21:12:36.169Z,20.53
2022-08-05T21:15:37.695Z,20.34
2022-08-05T21:18:39.228Z,20.05
2022-08-05T21:21:50.551Z,19.96
2022-08-05T21:24:54.260Z,19.63
2022-08-05T21:27:56.396Z,19.19
2022-08-05T21:30:58.827Z,19.25
2022-08-05T21:34:00.296Z,19.13
2022-08-05T21:37:04.677Z,19.24
2022-08-05T21:40:07.146Z,19.24
2022-08-05T21:43:17.755Z,19.42
2022-08-05T21:46:27.503Z,19.32
2022-08-05T21:49:48.435Z,19.11
2022-08-05T21:52:58.943Z,18.91
2022-08-05T21:56:16.320Z,19.02
2022-08-05T21:59:24.137Z,19.15
2022-08-05T22:02:27.908Z,19.13
2022-08-05T22:05:29.386Z,19.12
2022-08-05T22:08:52.460Z,19.10
2022-08-05T22:11:54.615Z,19.04
2022-08-05T22:14:57.040Z,19.02
2022-08-05T22:18:00.225Z,19.30
2022-08-05T22:21:04.079Z,19.27
2022-08-05T22:24:40.284Z,19.25
2022-08-05T22:28:09.109Z,19.33
2022-08-05T22:31:09.373Z,19.17
2022-08-05T22:34:25.594Z,19.28
2022-08-05T22:37:58.175Z,19.27
2022-08-05T22:40:54.843Z,19.30
2022-08-05T22:43:59.185Z,19.45
2022-08-05T22:47:00.844Z,19.55
2022-08-05T22:50:23.048Z,19.35
2022-08-05T22:53:35.539Z,19.16
2022-08-05T22:56:39.974Z,19.09
2022-08-05T22:59:45.057Z,19.23
2022-08-05T23:02:53.127Z,19.07
2022-08-05T23:05:55.714Z,19.02
2022-08-05T23:08:57.266Z,18.88
2022-08-05T23:12:20.190Z,18.94
2022-08-05T23:15:29.483Z,18.98
2022-08-05T23:18:36.263Z,18.77
2022-08-05T23:21:42.935Z,18.70
2022-08-05T23:24:51.301Z,18.73
2022-08-05T23:28:00.281Z,18.82
2022-08-05T23:31:16.281Z,18.99
2022-08-05T23:34:24.500Z,18.97
2022-08-05T23:37:26.697Z,18.74
2022-08-05T23:40:35.845Z,18.88
2022-08-05T23:44:04.665Z,18.81
2022-08-05T23:47:02.634Z,18.87
2022-08-05T23:50:17.119Z,18.89
2022-08-05T23:53:22.920Z,18.89
2022-08-05T23:56:27.507Z,18.74
